Current | Forecast
Updated: 11:15 PM CEST on April 26, 2017
Observed at Papa, Hungary
Temperature 10°C
Humidity 82%
Dew Point 7°C
Wind NNW at 15 km/h
Pressure 1011 hPa (Rising)
Conditions Clear
Visibility -
UV N/A
Clouds
Yesterday's Maximum 22°C
Yesterday's Minimum 10°C approx.
Yesterday's Heating Degree Days 4 approx.
Sunrise5:43 AM CEST
Sunset7:55 PM CEST
Moon Rise6:03 AM CEST
Moon Set7:53 PM CEST
Moon PhaseMoon Phase
New Moon
Raw METARMETAR LHPA 262115Z 33008KT CAVOK 10/07 Q1011 NOSIG RMK BLU


Monday
. High: 64° F.
Tuesday
. High: 78° F.
Wednesday
. High: 82° F.
Thursday
. High: 73° F.
Friday
. High: 68° F.
Saturday
. High: 73° F.
Sunday
. High: 82° F.
Monday
. High: 71° F.

Units: English | Metric

Find the Weather for any City, State or Zipcode, or Country:

U.S. State List | Severe Weather | Tropical Storms | Ski Conditions
United States | Canada | Central America | South America | Asia | Europe | Australia | Africa | Islands

Weather Underground

© Copyright 2017
The Weather Company, LLC